Time;durP1;ratioP1;P1;durP2;ratioP2;P2;SDS_P1;SDS_P2;PMS_P1;PMS_P2;Temp;Humidity;BMP_temperature;BMP_pressure;BME280_temperature;BME280_humidity;BME280_pressure;Samples;Min_cycle;Max_cycle;Signal;HPM_P1;HPM_P2
2021/12/31 00:01:03;;;;;;;21.92;15.90;;;;;;;;;;4933875;28;20058;-77
2021/12/31 00:03:40;;;;;;;15.85;11.43;;;;;;;;;;4917752;29;20119;-77
2021/12/31 00:06:47;;;;;;;15.45;10.50;;;;;;;;;;4916489;29;20045;-76
2021/12/31 00:09:33;;;;;;;14.45;10.80;;;;;;;;;;4886843;29;20575;-78
2021/12/31 00:12:14;;;;;;;11.48;8.05;;;;;;;;;;4891020;29;20117;-79
2021/12/31 00:14:55;;;;;;;12.50;8.38;;;;;;;;;;4902101;29;20048;-78
2021/12/31 00:28:17;;;;;;;17.55;10.65;;;;;;;;;;5031338;28;20049;-78
2021/12/31 00:54:44;;;;;;;16.55;10.40;;;;;;;;;;2929618;26;20063;-80
2021/12/31 00:57:55;;;;;;;17.35;10.70;;;;;;;;;;5093599;28;20052;-79
2021/12/31 01:03:17;;;;;;;16.63;10.80;;;;;;;;;;5676318;22;20052;-78
2021/12/31 01:09:16;;;;;;;20.65;11.82;;;;;;;;;;5280281;22;20189;-79
2021/12/31 01:11:51;;;;;;;22.08;12.52;;;;;;;;;;5054048;28;20045;-81
2021/12/31 01:15:02;;;;;;;19.02;11.68;;;;;;;;;;5042203;28;20065;-81
2021/12/31 01:23:34;;;;;;;21.55;11.02;;;;;;;;;;5454938;22;20887;-77
2021/12/31 01:31:24;;;;;;;20.15;11.75;;;;;;;;;;5955167;22;20115;-78
2021/12/31 01:33:53;;;;;;;18.35;11.65;;;;;;;;;;5093891;28;20044;-79
2021/12/31 01:36:21;;;;;;;20.60;13.20;;;;;;;;;;5093301;28;20091;-77
2021/12/31 01:38:48;;;;;;;22.73;13.98;;;;;;;;;;5091526;28;20029;-77
2021/12/31 01:41:22;;;;;;;33.92;22.02;;;;;;;;;;5089814;28;20048;-78
2021/12/31 01:44:09;;;;;;;31.70;20.52;;;;;;;;;;5053051;28;20044;-78
2021/12/31 01:47:11;;;;;;;34.58;20.33;;;;;;;;;;5070038;28;20029;-78
2021/12/31 01:50:07;;;;;;;37.72;24.85;;;;;;;;;;5055808;28;20017;-79
2021/12/31 01:53:01;;;;;;;37.08;21.98;;;;;;;;;;5070177;28;20026;-80
2021/12/31 02:27:38;;;;;;;22.38;16.02;;;;;;;;;;5499810;22;20066;-79
2021/12/31 03:01:44;;;;;;;15.52;10.63;;;;;;;;;;5001822;22;20055;-79
2021/12/31 03:08:16;;;;;;;17.88;12.57;;;;;;;;;;4911797;26;20054;-81
2021/12/31 03:14:54;;;;;;;19.38;12.35;;;;;;;;;;5037202;28;20126;-78
2021/12/31 03:18:07;;;;;;;15.82;10.57;;;;;;;;;;5056370;28;20049;-78
2021/12/31 03:21:20;;;;;;;19.13;10.75;;;;;;;;;;5007128;28;20025;-80
2021/12/31 03:37:06;;;;;;;13.77;9.00;;;;;;;;;;5330796;23;20093;-80
2021/12/31 03:42:56;;;;;;;17.10;8.75;;;;;;;;;;6120784;22;20021;-80
2021/12/31 03:46:16;;;;;;;16.13;8.55;;;;;;;;;;4999533;28;20034;-80
2021/12/31 03:49:42;;;;;;;15.15;8.68;;;;;;;;;;4967494;28;20036;-80
2021/12/31 03:58:00;;;;;;;21.40;11.68;;;;;;;;;;5183005;22;20056;-79
2021/12/31 04:00:51;;;;;;;17.05;10.23;;;;;;;;;;5553449;23;20395;-79
2021/12/31 04:20:10;;;;;;;17.50;9.65;;;;;;;;;;5665614;23;20276;-79
2021/12/31 04:25:46;;;;;;;17.15;9.32;;;;;;;;;;5076632;28;19916;-79
2021/12/31 04:28:45;;;;;;;18.52;9.35;;;;;;;;;;5044323;28;20076;-80
2021/12/31 04:34:25;;;;;;;24.20;12.25;;;;;;;;;;5015847;28;20084;-80
2021/12/31 04:42:53;;;;;;;20.48;12.15;;;;;;;;;;5153585;23;20073;-78
2021/12/31 04:45:45;;;;;;;19.90;10.05;;;;;;;;;;5035112;28;20046;-79
2021/12/31 05:09:41;;;;;;;22.83;13.30;;;;;;;;;;5593324;23;20042;-80
2021/12/31 05:12:45;;;;;;;22.33;12.43;;;;;;;;;;5067835;23;20042;-78
2021/12/31 05:15:46;;;;;;;21.42;12.75;;;;;;;;;;5013688;28;20046;-78
2021/12/31 05:26:13;;;;;;;18.13;10.48;;;;;;;;;;5661465;23;20057;-79
2021/12/31 05:28:45;;;;;;;19.25;12.27;;;;;;;;;;5010346;28;20038;-78
2021/12/31 05:31:26;;;;;;;18.05;11.35;;;;;;;;;;5005359;28;20038;-79
2021/12/31 05:34:27;;;;;;;17.55;11.43;;;;;;;;;;4989905;28;20041;-79
2021/12/31 05:37:32;;;;;;;15.68;11.27;;;;;;;;;;4997225;28;20055;-78
2021/12/31 05:40:49;;;;;;;22.77;13.68;;;;;;;;;;4981382;28;20027;-78
2021/12/31 05:44:09;;;;;;;23.40;13.75;;;;;;;;;;4940032;28;20052;-78
2021/12/31 05:46:49;;;;;;;22.40;13.80;;;;;;;;;;4886028;29;20055;-80
2021/12/31 05:49:57;;;;;;;25.30;15.90;;;;;;;;;;4900558;29;20017;-78
2021/12/31 05:52:38;;;;;;;19.08;12.98;;;;;;;;;;4916771;29;20085;-79
2021/12/31 05:55:40;;;;;;;19.60;12.82;;;;;;;;;;4904380;29;20053;-79
2021/12/31 05:58:54;;;;;;;22.05;13.20;;;;;;;;;;4880420;29;20030;-79
2021/12/31 06:02:12;;;;;;;27.20;14.63;;;;;;;;;;4882404;29;20039;-80
2021/12/31 06:08:09;;;;;;;24.83;15.60;;;;;;;;;;4879791;29;20051;-78
2021/12/31 06:10:54;;;;;;;28.15;18.70;;;;;;;;;;4882025;29;20037;-80
2021/12/31 06:14:01;;;;;;;20.58;14.10;;;;;;;;;;4834554;29;20104;-78
2021/12/31 06:17:02;;;;;;;22.77;13.70;;;;;;;;;;4873342;29;20025;-78
2021/12/31 06:19:47;;;;;;;25.05;14.30;;;;;;;;;;4949923;28;20051;-81
2021/12/31 06:24:58;;;;;;;32.38;17.25;;;;;;;;;;6066089;23;19940;-79
2021/12/31 06:28:05;;;;;;;32.72;15.88;;;;;;;;;;4988669;28;20031;-80
2021/12/31 06:30:56;;;;;;;34.17;16.95;;;;;;;;;;4999081;28;20019;-81
2021/12/31 06:33:31;;;;;;;46.65;24.42;;;;;;;;;;4979559;28;20031;-79
2021/12/31 06:36:29;;;;;;;93.43;69.45;;;;;;;;;;5032084;28;20073;-79
2021/12/31 06:39:01;;;;;;;49.33;35.58;;;;;;;;;;5008531;28;20061;-75
2021/12/31 06:41:44;;;;;;;24.30;15.90;;;;;;;;;;4991948;28;20029;-80
2021/12/31 06:44:39;;;;;;;34.28;22.15;;;;;;;;;;4999035;28;20014;-80
2021/12/31 06:47:23;;;;;;;41.03;24.97;;;;;;;;;;4997885;28;20041;-76
2021/12/31 06:49:58;;;;;;;41.63;27.02;;;;;;;;;;4998153;28;20034;-77
2021/12/31 06:53:03;;;;;;;51.25;30.60;;;;;;;;;;5004529;28;20035;-78
2021/12/31 06:55:34;;;;;;;66.75;39.75;;;;;;;;;;4999408;28;20022;-78
2021/12/31 06:58:02;;;;;;;48.40;27.60;;;;;;;;;;4980758;28;20029;-78
2021/12/31 07:00:28;;;;;;;46.42;27.52;;;;;;;;;;4985182;28;20245;-76
2021/12/31 07:03:15;;;;;;;43.75;25.83;;;;;;;;;;4985067;28;20081;-77
2021/12/31 07:05:42;;;;;;;43.08;23.40;;;;;;;;;;4963571;28;20031;-76
2021/12/31 07:08:13;;;;;;;45.00;22.52;;;;;;;;;;4979530;28;20035;-77
2021/12/31 07:10:40;;;;;;;41.95;22.15;;;;;;;;;;4965555;28;20050;-76
2021/12/31 07:13:12;;;;;;;42.40;22.45;;;;;;;;;;4984066;28;20058;-77
2021/12/31 07:15:48;;;;;;;44.53;24.35;;;;;;;;;;4984548;28;20047;-76
2021/12/31 07:18:15;;;;;;;49.83;29.10;;;;;;;;;;4983498;28;21575;-76
2021/12/31 07:20:42;;;;;;;250.65;145.98;;;;;;;;;;4968332;28;20030;-76
2021/12/31 07:23:09;;;;;;;384.67;253.65;;;;;;;;;;4983749;28;20078;-77
2021/12/31 07:25:36;;;;;;;148.68;100.10;;;;;;;;;;4970250;28;20035;-77
2021/12/31 07:28:02;;;;;;;90.97;60.65;;;;;;;;;;4987653;28;20034;-77
2021/12/31 07:30:28;;;;;;;62.88;40.72;;;;;;;;;;4991827;28;20031;-78
2021/12/31 07:32:56;;;;;;;46.72;28.75;;;;;;;;;;4994387;28;20038;-77
2021/12/31 07:35:22;;;;;;;37.08;24.92;;;;;;;;;;4973919;28;20042;-77
2021/12/31 07:37:48;;;;;;;39.35;23.35;;;;;;;;;;4993351;28;20031;-78
2021/12/31 07:40:42;;;;;;;29.95;18.25;;;;;;;;;;4992636;28;20082;-79
2021/12/31 07:43:24;;;;;;;30.50;16.92;;;;;;;;;;4978841;28;20039;-78
2021/12/31 07:46:22;;;;;;;44.55;20.63;;;;;;;;;;4981718;28;20141;-77
2021/12/31 07:48:48;;;;;;;56.40;32.05;;;;;;;;;;5005991;28;20043;-77
2021/12/31 07:51:16;;;;;;;50.75;31.77;;;;;;;;;;4999403;28;20038;-76
2021/12/31 07:53:42;;;;;;;38.42;25.75;;;;;;;;;;4997034;28;20457;-76
2021/12/31 07:56:34;;;;;;;29.80;21.40;;;;;;;;;;5005707;28;20046;-78
2021/12/31 07:59:07;;;;;;;35.60;24.02;;;;;;;;;;5009258;28;20035;-77
2021/12/31 08:01:33;;;;;;;40.60;27.55;;;;;;;;;;5007304;28;20076;-77
2021/12/31 08:04:02;;;;;;;50.78;33.78;;;;;;;;;;5007954;28;20030;-76
2021/12/31 08:06:28;;;;;;;53.90;37.33;;;;;;;;;;5021604;28;20022;-76
2021/12/31 08:08:54;;;;;;;68.38;44.55;;;;;;;;;;5001296;28;20022;-76
2021/12/31 08:11:22;;;;;;;71.97;46.38;;;;;;;;;;4999395;28;20027;-76
2021/12/31 08:13:51;;;;;;;71.25;50.35;;;;;;;;;;5006353;28;20022;-76
2021/12/31 08:16:17;;;;;;;79.43;52.95;;;;;;;;;;4990274;28;20038;-76
2021/12/31 08:18:43;;;;;;;77.65;53.17;;;;;;;;;;5000264;28;20389;-74
2021/12/31 08:21:09;;;;;;;67.22;46.63;;;;;;;;;;5015052;28;20062;-77
2021/12/31 08:24:11;;;;;;;64.85;44.47;;;;;;;;;;5007997;28;20027;-78
2021/12/31 08:26:41;;;;;;;62.95;40.75;;;;;;;;;;4998492;28;20153;-77
2021/12/31 08:29:12;;;;;;;67.10;43.78;;;;;;;;;;4981047;28;20043;-76
2021/12/31 08:31:44;;;;;;;58.00;36.63;;;;;;;;;;4993900;28;20035;-79
2021/12/31 08:34:18;;;;;;;56.93;39.50;;;;;;;;;;4990941;28;20035;-77
2021/12/31 08:36:44;;;;;;;60.90;37.92;;;;;;;;;;4971162;28;20041;-74
2021/12/31 08:39:11;;;;;;;63.97;41.17;;;;;;;;;;4986507;28;20034;-77
2021/12/31 08:41:38;;;;;;;65.60;40.70;;;;;;;;;;4980874;28;20042;-75
2021/12/31 08:44:09;;;;;;;65.18;41.85;;;;;;;;;;4994533;28;20041;-76
2021/12/31 08:46:36;;;;;;;56.65;36.42;;;;;;;;;;4999658;28;20034;-76
2021/12/31 08:49:02;;;;;;;50.13;35.50;;;;;;;;;;4987282;28;20041;-78
2021/12/31 08:51:28;;;;;;;52.70;36.30;;;;;;;;;;4998906;28;20035;-74
2021/12/31 08:53:55;;;;;;;49.28;32.28;;;;;;;;;;4989690;28;20043;-74
2021/12/31 08:59:20;;;;;;;53.30;34.45;;;;;;;;;;5036238;23;20053;-78
2021/12/31 09:01:57;;;;;;;56.20;35.90;;;;;;;;;;4979743;28;20488;-77
2021/12/31 09:04:37;;;;;;;57.72;38.30;;;;;;;;;;4994854;28;20044;-78
2021/12/31 09:07:05;;;;;;;54.33;36.65;;;;;;;;;;5003704;28;20038;-78
2021/12/31 09:09:34;;;;;;;64.68;39.35;;;;;;;;;;5000518;28;20057;-76
2021/12/31 09:12:01;;;;;;;72.13;42.08;;;;;;;;;;4992286;28;20387;-73
2021/12/31 09:14:32;;;;;;;53.15;35.40;;;;;;;;;;4999320;28;20483;-75
2021/12/31 09:17:00;;;;;;;60.78;36.70;;;;;;;;;;4984422;28;20061;-74
2021/12/31 09:19:26;;;;;;;65.30;41.50;;;;;;;;;;4994322;28;20142;-73
2021/12/31 09:21:55;;;;;;;53.33;35.35;;;;;;;;;;4997466;28;20034;-74
2021/12/31 09:24:21;;;;;;;55.13;33.97;;;;;;;;;;4995357;28;20062;-74
2021/12/31 09:26:52;;;;;;;62.00;36.95;;;;;;;;;;4998506;28;20028;-77
2021/12/31 09:29:20;;;;;;;49.80;31.88;;;;;;;;;;4996318;28;20123;-76
2021/12/31 09:31:46;;;;;;;76.45;45.47;;;;;;;;;;4997240;28;20490;-73
2021/12/31 09:34:12;;;;;;;114.47;63.80;;;;;;;;;;5014430;28;20493;-79
2021/12/31 09:36:38;;;;;;;147.48;82.13;;;;;;;;;;5001822;28;20038;-78
2021/12/31 09:39:06;;;;;;;131.68;70.07;;;;;;;;;;4997643;28;20116;-77
2021/12/31 09:41:38;;;;;;;64.03;38.40;;;;;;;;;;4995506;28;20030;-76
2021/12/31 09:44:20;;;;;;;;;;;;;;;;;;5004338;28;20033;-76
2021/12/31 09:46:56;;;;;;;50.97;29.15;;;;;;;;;;5005098;28;20260;-72
2021/12/31 09:49:26;;;;;;;45.00;26.42;;;;;;;;;;5000633;28;20096;-73
2021/12/31 09:51:53;;;;;;;42.13;25.23;;;;;;;;;;4999666;28;20072;-73
2021/12/31 09:54:22;;;;;;;40.83;27.05;;;;;;;;;;5000832;28;20114;-76
2021/12/31 09:56:48;;;;;;;38.92;25.67;;;;;;;;;;4995570;28;20050;-72
2021/12/31 09:59:19;;;;;;;35.58;25.17;;;;;;;;;;5010809;28;20046;-72
2021/12/31 10:01:46;;;;;;;35.50;24.95;;;;;;;;;;4990949;28;20054;-72
2021/12/31 10:04:12;;;;;;;33.75;24.40;;;;;;;;;;4987418;28;20026;-74
2021/12/31 10:06:38;;;;;;;39.83;27.77;;;;;;;;;;4991012;28;20061;-73
2021/12/31 10:09:05;;;;;;;36.47;24.45;;;;;;;;;;4993347;28;20110;-74
2021/12/31 10:11:31;;;;;;;37.92;24.38;;;;;;;;;;4992875;28;20030;-76
2021/12/31 10:13:58;;;;;;;37.85;24.92;;;;;;;;;;4985067;28;20023;-73
2021/12/31 10:16:38;;;;;;;33.53;24.10;;;;;;;;;;4995085;28;20038;-73
2021/12/31 10:19:11;;;;;;;33.55;23.50;;;;;;;;;;4994494;28;20053;-73
2021/12/31 10:21:41;;;;;;;31.67;22.77;;;;;;;;;;4995279;28;20029;-74
2021/12/31 10:24:26;;;;;;;28.25;21.13;;;;;;;;;;4995703;28;20033;-73
2021/12/31 10:26:57;;;;;;;31.33;21.17;;;;;;;;;;4995654;28;20488;-73
2021/12/31 10:29:23;;;;;;;30.75;21.38;;;;;;;;;;4995655;28;20081;-75
2021/12/31 10:31:54;;;;;;;31.17;21.52;;;;;;;;;;4996947;28;20061;-76
2021/12/31 10:34:36;;;;;;;34.08;23.77;;;;;;;;;;4995795;28;20042;-72
2021/12/31 10:37:15;;;;;;;32.95;23.45;;;;;;;;;;4998485;28;20054;-75
2021/12/31 10:39:43;;;;;;;34.00;24.45;;;;;;;;;;4998714;28;20065;-75
2021/12/31 10:42:10;;;;;;;40.00;22.42;;;;;;;;;;4998023;28;20033;-77
2021/12/31 10:44:43;;;;;;;31.33;22.05;;;;;;;;;;4997512;28;20033;-71
2021/12/31 10:47:13;;;;;;;32.05;23.25;;;;;;;;;;4994281;28;20015;-73
2021/12/31 10:49:58;;;;;;;126.85;92.45;;;;;;;;;;4993636;28;20061;-72
2021/12/31 10:52:26;;;;;;;45.08;30.48;;;;;;;;;;5002004;28;20104;-76
2021/12/31 10:55:24;;;;;;;41.60;29.38;;;;;;;;;;5005423;28;20098;-73
2021/12/31 10:57:52;;;;;;;32.05;21.02;;;;;;;;;;4912911;29;20047;-71
2021/12/31 11:00:27;;;;;;;34.63;24.13;;;;;;;;;;4921394;29;20040;-71
2021/12/31 11:02:54;;;;;;;34.83;22.38;;;;;;;;;;4918640;29;20032;-70
2021/12/31 11:05:41;;;;;;;35.55;21.90;;;;;;;;;;4919939;29;20072;-71
2021/12/31 11:08:13;;;;;;;34.03;21.73;;;;;;;;;;4915048;29;20040;-74
2021/12/31 11:10:42;;;;;;;26.17;19.85;;;;;;;;;;4902734;29;20046;-76
2021/12/31 11:13:20;;;;;;;38.70;23.38;;;;;;;;;;4914392;29;20047;-71
2021/12/31 11:16:06;;;;;;;46.33;26.17;;;;;;;;;;4926317;29;20135;-75
2021/12/31 11:18:39;;;;;;;32.28;20.33;;;;;;;;;;4910908;29;20032;-72
2021/12/31 11:21:06;;;;;;;32.28;20.25;;;;;;;;;;4900540;29;20126;-71
2021/12/31 11:23:32;;;;;;;34.33;22.10;;;;;;;;;;4906398;29;20043;-71
2021/12/31 11:26:08;;;;;;;30.67;19.02;;;;;;;;;;4897860;29;20490;-73
2021/12/31 11:28:43;;;;;;;31.52;19.08;;;;;;;;;;4966980;28;20046;-71
2021/12/31 11:31:33;;;;;;;33.85;19.25;;;;;;;;;;4988243;28;20042;-70
2021/12/31 11:34:27;;;;;;;34.20;20.05;;;;;;;;;;4998962;28;20492;-76
2021/12/31 11:36:54;;;;;;;32.75;20.00;;;;;;;;;;4904958;29;20048;-73
2021/12/31 11:39:23;;;;;;;38.55;22.30;;;;;;;;;;4906767;29;20103;-74
2021/12/31 11:41:58;;;;;;;36.33;21.52;;;;;;;;;;4919186;29;20047;-78
2021/12/31 11:44:36;;;;;;;34.10;20.13;;;;;;;;;;4932825;29;20033;-77
2021/12/31 11:47:38;;;;;;;;;;;;;;;;;;;;;
2021/12/31 11:50:24;;;;;;;24.35;17.05;;;;;;;;;;4897543;29;20194;-75
2021/12/31 11:53:01;;;;;;;33.38;20.27;;;;;;;;;;4908950;29;20539;-75
2021/12/31 11:55:27;;;;;;;29.48;18.60;;;;;;;;;;4923123;29;20052;-72
2021/12/31 11:57:55;;;;;;;30.15;18.08;;;;;;;;;;4924619;29;20048;-73
2021/12/31 12:00:27;;;;;;;32.88;22.17;;;;;;;;;;4917814;29;20145;-75
2021/12/31 12:03:01;;;;;;;45.22;25.38;;;;;;;;;;4912990;29;20032;-71
2021/12/31 12:05:48;;;;;;;37.33;25.02;;;;;;;;;;4930355;29;20012;-71
2021/12/31 12:08:48;;;;;;;;;;;;;;;;;;;;;
2021/12/31 12:11:38;;;;;;;76.45;36.78;;;;;;;;;;4930125;29;20091;-78
2021/12/31 12:14:23;;;;;;;77.03;39.13;;;;;;;;;;4946872;28;20030;-74
2021/12/31 12:16:57;;;;;;;65.18;32.75;;;;;;;;;;5004306;28;20113;-71
2021/12/31 12:19:23;;;;;;;50.13;28.38;;;;;;;;;;4981934;28;20049;-71
2021/12/31 12:21:53;;;;;;;48.72;32.20;;;;;;;;;;4991599;28;20113;-73
2021/12/31 12:24:26;;;;;;;88.32;49.15;;;;;;;;;;4986572;28;20026;-73
2021/12/31 12:26:52;;;;;;;51.13;32.60;;;;;;;;;;4989442;28;20455;-76
2021/12/31 12:29:26;;;;;;;47.55;30.88;;;;;;;;;;4974958;28;20022;-72
2021/12/31 12:32:11;;;;;;;59.55;35.17;;;;;;;;;;4992460;28;20276;-75
2021/12/31 12:34:37;;;;;;;42.95;30.95;;;;;;;;;;4992608;28;20065;-75
2021/12/31 12:37:04;;;;;;;43.65;22.85;;;;;;;;;;4992192;28;20031;-74
2021/12/31 12:39:30;;;;;;;49.00;25.58;;;;;;;;;;4990364;28;20101;-74
2021/12/31 12:41:56;;;;;;;66.30;40.63;;;;;;;;;;4998679;28;20037;-76
2021/12/31 12:44:23;;;;;;;61.83;34.78;;;;;;;;;;5003168;28;20050;-76
2021/12/31 12:46:52;;;;;;;71.63;42.05;;;;;;;;;;4991925;28;20088;-74
2021/12/31 12:49:18;;;;;;;67.75;38.10;;;;;;;;;;4995181;28;20033;-72
2021/12/31 12:51:46;;;;;;;63.78;31.38;;;;;;;;;;4996007;28;20555;-71
2021/12/31 12:54:23;;;;;;;32.95;17.05;;;;;;;;;;4993542;28;20027;-71
2021/12/31 12:56:50;;;;;;;24.95;12.35;;;;;;;;;;4992526;28;20031;-71
2021/12/31 12:59:37;;;;;;;24.95;12.38;;;;;;;;;;5001070;28;20027;-72
2021/12/31 13:02:05;;;;;;;26.08;13.20;;;;;;;;;;5000294;28;20036;-75
2021/12/31 13:04:32;;;;;;;26.67;12.95;;;;;;;;;;4999026;28;20040;-71
2021/12/31 13:07:02;;;;;;;24.30;13.48;;;;;;;;;;4991425;28;20523;-71
2021/12/31 13:09:34;;;;;;;26.70;13.57;;;;;;;;;;4989926;28;20033;-72
2021/12/31 13:12:02;;;;;;;22.98;12.63;;;;;;;;;;4996264;28;20034;-72
2021/12/31 13:14:30;;;;;;;20.25;12.85;;;;;;;;;;4991286;28;20615;-74
2021/12/31 13:16:57;;;;;;;31.67;12.95;;;;;;;;;;4990795;28;20034;-74
2021/12/31 13:19:33;;;;;;;26.10;14.98;;;;;;;;;;4992112;28;20030;-74
2021/12/31 13:22:13;;;;;;;25.50;15.35;;;;;;;;;;4991658;28;20121;-73
2021/12/31 13:24:40;;;;;;;31.95;20.23;;;;;;;;;;4991828;28;20049;-76
2021/12/31 13:27:08;;;;;;;40.28;27.10;;;;;;;;;;4993999;28;20030;-74
2021/12/31 13:29:38;;;;;;;60.58;40.38;;;;;;;;;;4992482;28;20026;-74
2021/12/31 13:32:08;;;;;;;65.45;42.05;;;;;;;;;;4992624;28;20110;-74
2021/12/31 13:34:45;;;;;;;46.13;29.80;;;;;;;;;;4994249;28;20103;-75
2021/12/31 13:37:25;;;;;;;55.80;30.92;;;;;;;;;;5000250;28;20030;-73
2021/12/31 13:40:03;;;;;;;52.08;31.13;;;;;;;;;;4998632;28;20025;-76
2021/12/31 13:42:30;;;;;;;53.20;31.90;;;;;;;;;;4997369;28;20047;-71
2021/12/31 13:44:57;;;;;;;55.60;34.13;;;;;;;;;;5005924;28;20053;-72
2021/12/31 13:47:25;;;;;;;60.25;38.63;;;;;;;;;;4999286;28;20033;-75
2021/12/31 13:49:57;;;;;;;81.15;48.53;;;;;;;;;;4998317;28;20050;-78
2021/12/31 13:52:23;;;;;;;65.10;41.33;;;;;;;;;;4995441;28;20102;-78
2021/12/31 13:54:53;;;;;;;60.75;39.67;;;;;;;;;;4999112;28;20034;-73
2021/12/31 13:57:19;;;;;;;63.15;33.75;;;;;;;;;;4998709;28;20034;-76
2021/12/31 13:59:46;;;;;;;59.58;34.85;;;;;;;;;;5000309;28;20092;-74
2021/12/31 14:02:17;;;;;;;60.22;35.40;;;;;;;;;;4981496;28;20041;-75
2021/12/31 14:04:56;;;;;;;55.17;32.35;;;;;;;;;;4998238;28;20030;-74
2021/12/31 14:07:38;;;;;;;54.28;31.02;;;;;;;;;;5000150;28;20113;-77
2021/12/31 14:10:08;;;;;;;48.60;30.02;;;;;;;;;;4998472;28;20037;-78
2021/12/31 14:12:48;;;;;;;48.40;28.27;;;;;;;;;;4996433;28;20081;-75
2021/12/31 14:15:15;;;;;;;51.70;30.23;;;;;;;;;;5006336;28;20026;-77
2021/12/31 14:17:41;;;;;;;72.38;40.10;;;;;;;;;;5001852;28;20071;-77
2021/12/31 14:20:07;;;;;;;67.22;40.55;;;;;;;;;;4998045;28;20042;-76
2021/12/31 14:22:34;;;;;;;67.78;43.03;;;;;;;;;;5001476;28;20117;-76
2021/12/31 14:25:08;;;;;;;82.88;49.67;;;;;;;;;;5000642;28;20022;-78
2021/12/31 14:27:35;;;;;;;117.32;64.35;;;;;;;;;;5004939;28;20070;-76
2021/12/31 14:30:01;;;;;;;112.53;60.58;;;;;;;;;;5000276;28;20014;-76
2021/12/31 14:32:27;;;;;;;97.10;54.08;;;;;;;;;;4998686;28;20034;-76
2021/12/31 14:34:54;;;;;;;90.63;48.60;;;;;;;;;;4982767;28;20484;-77
2021/12/31 14:37:20;;;;;;;72.03;42.28;;;;;;;;;;4999035;28;20030;-76
2021/12/31 14:39:54;;;;;;;63.42;40.45;;;;;;;;;;4997588;28;20026;-76
2021/12/31 14:42:24;;;;;;;113.50;69.90;;;;;;;;;;4994092;28;20105;-76
2021/12/31 14:44:51;;;;;;;259.20;148.02;;;;;;;;;;4996759;28;20061;-76
2021/12/31 14:47:17;;;;;;;152.80;91.78;;;;;;;;;;4996873;28;20080;-77
2021/12/31 14:49:43;;;;;;;85.88;56.95;;;;;;;;;;4978749;28;20484;-76
2021/12/31 14:52:09;;;;;;;69.82;45.38;;;;;;;;;;4997491;28;20388;-76
2021/12/31 14:54:37;;;;;;;62.80;43.63;;;;;;;;;;4981377;28;20038;-77
2021/12/31 14:57:03;;;;;;;65.40;46.30;;;;;;;;;;4999384;28;20057;-76
2021/12/31 14:59:29;;;;;;;71.88;49.35;;;;;;;;;;4997558;28;20125;-77
2021/12/31 15:01:55;;;;;;;84.38;56.70;;;;;;;;;;4999841;28;20030;-76
2021/12/31 15:04:21;;;;;;;88.07;58.30;;;;;;;;;;4998169;28;20046;-76
2021/12/31 15:06:48;;;;;;;121.68;76.72;;;;;;;;;;4998098;28;20022;-76
2021/12/31 15:09:14;;;;;;;110.47;70.45;;;;;;;;;;4998620;28;20062;-75
2021/12/31 15:11:40;;;;;;;122.47;72.32;;;;;;;;;;4997069;28;20480;-75
2021/12/31 15:14:06;;;;;;;91.15;59.53;;;;;;;;;;4997078;28;20163;-76
2021/12/31 15:16:32;;;;;;;95.82;62.72;;;;;;;;;;4998549;28;20035;-70
2021/12/31 15:18:59;;;;;;;77.95;51.67;;;;;;;;;;4997681;28;20023;-75
2021/12/31 15:21:25;;;;;;;89.05;58.70;;;;;;;;;;4993861;28;20030;-76
2021/12/31 15:23:51;;;;;;;67.60;48.58;;;;;;;;;;4995290;28;20077;-75
2021/12/31 15:26:18;;;;;;;63.88;44.63;;;;;;;;;;4996889;28;20018;-75
2021/12/31 15:28:44;;;;;;;66.32;44.88;;;;;;;;;;4989847;28;20102;-77
2021/12/31 15:31:10;;;;;;;76.32;51.65;;;;;;;;;;4996366;28;20457;-76
2021/12/31 15:33:36;;;;;;;51.67;34.72;;;;;;;;;;4999076;28;20037;-76
2021/12/31 15:36:03;;;;;;;45.97;30.83;;;;;;;;;;4999557;28;20494;-77
2021/12/31 15:38:29;;;;;;;51.03;31.98;;;;;;;;;;5001957;28;20114;-75
2021/12/31 15:40:58;;;;;;;45.92;31.15;;;;;;;;;;5005920;28;20030;-72
2021/12/31 15:43:31;;;;;;;59.60;41.13;;;;;;;;;;5000697;28;20113;-77
2021/12/31 15:46:15;;;;;;;86.03;55.63;;;;;;;;;;4996341;28;20119;-76
2021/12/31 15:48:41;;;;;;;94.05;62.45;;;;;;;;;;5000910;28;20022;-71
2021/12/31 15:51:08;;;;;;;59.65;39.63;;;;;;;;;;5000900;28;20507;-72
2021/12/31 15:53:34;;;;;;;45.95;27.75;;;;;;;;;;4995290;28;20052;-75
2021/12/31 15:56:02;;;;;;;37.97;25.85;;;;;;;;;;4994257;28;20038;-72
2021/12/31 15:58:28;;;;;;;42.33;28.92;;;;;;;;;;4996361;28;20048;-75
2021/12/31 16:00:54;;;;;;;58.97;39.97;;;;;;;;;;4998815;28;20033;-77
2021/12/31 16:03:21;;;;;;;46.38;31.02;;;;;;;;;;4996132;28;20050;-76
2021/12/31 16:05:47;;;;;;;32.55;21.70;;;;;;;;;;4995552;28;20739;-77
2021/12/31 16:08:15;;;;;;;25.38;17.65;;;;;;;;;;4987692;28;20033;-78
2021/12/31 16:10:42;;;;;;;21.48;15.73;;;;;;;;;;5007352;28;20045;-75
2021/12/31 16:13:08;;;;;;;25.52;17.02;;;;;;;;;;4976994;28;20026;-75
2021/12/31 16:15:34;;;;;;;18.67;12.13;;;;;;;;;;4994082;28;20484;-76
2021/12/31 16:18:00;;;;;;;16.33;11.90;;;;;;;;;;4994179;28;20026;-75
2021/12/31 16:20:28;;;;;;;15.27;10.00;;;;;;;;;;4993625;28;20104;-76
2021/12/31 16:22:54;;;;;;;15.20;10.48;;;;;;;;;;4990559;28;20031;-76
2021/12/31 16:25:20;;;;;;;12.90;9.35;;;;;;;;;;4996581;28;20117;-75
2021/12/31 16:27:49;;;;;;;14.35;9.18;;;;;;;;;;4998479;28;20077;-76
2021/12/31 16:30:15;;;;;;;11.68;8.85;;;;;;;;;;4990528;28;20041;-74
2021/12/31 16:32:48;;;;;;;13.73;8.43;;;;;;;;;;5007613;28;20026;-78
2021/12/31 16:35:19;;;;;;;10.30;6.60;;;;;;;;;;4990369;28;20066;-79
2021/12/31 16:38:08;;;;;;;12.10;7.70;;;;;;;;;;4989281;28;20057;-76
2021/12/31 16:40:35;;;;;;;10.75;7.80;;;;;;;;;;5002266;28;20041;-79
2021/12/31 16:43:02;;;;;;;9.13;5.72;;;;;;;;;;4988304;28;20476;-78
2021/12/31 16:45:29;;;;;;;7.43;5.07;;;;;;;;;;4984514;28;20134;-74
2021/12/31 16:47:55;;;;;;;10.07;6.50;;;;;;;;;;4993605;28;20084;-72
2021/12/31 16:50:24;;;;;;;7.72;5.95;;;;;;;;;;5002601;28;20026;-73
2021/12/31 16:52:50;;;;;;;10.00;5.70;;;;;;;;;;4991382;28;20034;-73
2021/12/31 16:55:30;;;;;;;7.28;5.18;;;;;;;;;;5465510;23;20465;-78
2021/12/31 17:00:46;;;;;;;9.25;6.03;;;;;;;;;;5345365;23;20052;-76
2021/12/31 17:03:12;;;;;;;10.38;6.50;;;;;;;;;;5025384;28;20014;-72
2021/12/31 17:05:43;;;;;;;11.23;5.82;;;;;;;;;;4998734;28;20117;-76
2021/12/31 17:08:09;;;;;;;8.27;5.57;;;;;;;;;;5032233;28;20026;-76
2021/12/31 17:10:36;;;;;;;7.38;5.47;;;;;;;;;;5014834;28;20057;-76
2021/12/31 17:13:05;;;;;;;8.50;6.40;;;;;;;;;;5022179;28;20037;-78
2021/12/31 17:15:31;;;;;;;11.35;6.28;;;;;;;;;;5007003;28;20079;-77
2021/12/31 17:17:57;;;;;;;9.25;5.70;;;;;;;;;;5007808;28;20029;-77
2021/12/31 17:20:24;;;;;;;25.52;15.38;;;;;;;;;;5021925;28;20037;-77
2021/12/31 17:22:51;;;;;;;28.48;15.43;;;;;;;;;;5004399;28;20022;-77
2021/12/31 17:25:23;;;;;;;22.25;12.70;;;;;;;;;;5022884;28;20033;-78
2021/12/31 17:27:51;;;;;;;19.08;11.15;;;;;;;;;;5016524;28;20112;-76
2021/12/31 17:30:17;;;;;;;10.68;6.72;;;;;;;;;;5030036;28;20140;-74
2021/12/31 17:32:44;;;;;;;11.63;7.72;;;;;;;;;;5026953;28;20029;-75
2021/12/31 17:35:11;;;;;;;10.63;7.82;;;;;;;;;;5028022;28;20483;-76
2021/12/31 17:37:40;;;;;;;8.50;6.30;;;;;;;;;;5030307;28;20037;-76
2021/12/31 17:40:15;;;;;;;7.45;6.03;;;;;;;;;;5019585;28;20037;-72
2021/12/31 17:42:41;;;;;;;7.72;5.63;;;;;;;;;;5004704;28;20025;-73
2021/12/31 17:45:08;;;;;;;7.65;5.07;;;;;;;;;;5025814;28;20021;-73
2021/12/31 17:47:34;;;;;;;7.25;5.32;;;;;;;;;;5021458;28;20399;-73
2021/12/31 17:50:00;;;;;;;6.45;5.03;;;;;;;;;;5009260;28;20026;-74
2021/12/31 17:52:26;;;;;;;7.10;5.05;;;;;;;;;;5012564;28;20026;-70
2021/12/31 17:54:52;;;;;;;8.57;5.50;;;;;;;;;;5013048;28;20030;-70
2021/12/31 17:57:19;;;;;;;8.95;6.53;;;;;;;;;;5013472;28;20151;-71
2021/12/31 17:59:45;;;;;;;11.32;6.38;;;;;;;;;;5013711;28;20030;-75
2021/12/31 18:02:12;;;;;;;14.60;10.93;;;;;;;;;;5014074;28;20041;-74
2021/12/31 18:04:38;;;;;;;13.60;9.13;;;;;;;;;;5012199;28;20022;-78
2021/12/31 18:07:05;;;;;;;13.05;10.20;;;;;;;;;;5023269;28;20554;-74
2021/12/31 18:09:31;;;;;;;17.63;11.55;;;;;;;;;;5011127;28;20108;-74
2021/12/31 18:11:57;;;;;;;11.35;8.40;;;;;;;;;;5013013;28;20072;-74
2021/12/31 18:14:23;;;;;;;9.30;6.20;;;;;;;;;;5017562;28;20030;-78
2021/12/31 18:16:50;;;;;;;12.60;8.90;;;;;;;;;;5016063;28;20026;-78
2021/12/31 18:19:28;;;;;;;10.85;7.57;;;;;;;;;;5028224;28;20025;-79
2021/12/31 18:21:56;;;;;;;7.18;5.43;;;;;;;;;;5003853;28;20018;-78
2021/12/31 18:24:25;;;;;;;7.45;5.60;;;;;;;;;;5021803;28;20356;-75
2021/12/31 18:26:52;;;;;;;6.63;5.38;;;;;;;;;;5015954;28;20026;-76
2021/12/31 18:29:24;;;;;;;27.33;20.40;;;;;;;;;;5030625;28;20028;-78
2021/12/31 18:31:52;;;;;;;113.28;72.68;;;;;;;;;;5015815;28;20022;-77
2021/12/31 18:34:19;;;;;;;11.00;8.38;;;;;;;;;;5019147;28;20085;-78
2021/12/31 18:36:45;;;;;;;7.72;5.95;;;;;;;;;;5007449;28;20033;-75